Time;durP1;ratioP1;P1;durP2;ratioP2;P2;SDS_P1;SDS_P2;PMS_P1;PMS_P2;Temp;Humidity;BMP_temperature;BMP_pressure;BME280_temperature;BME280_humidity;BME280_pressure;Samples;Min_cycle;Max_cycle;Signal;HPM_P1;HPM_P2
2022/11/14 00:01:13;;;;;;;6.05;3.80;;;;;;;;;;6199439;23;20232;-73
2022/11/14 00:03:39;;;;;;;7.80;3.80;;;;;;;;;;6206916;23;20047;-78
2022/11/14 00:06:06;;;;;;;4.30;3.90;;;;;;;;;;6207767;23;20076;-77
2022/11/14 00:08:32;;;;;;;5.68;3.63;;;;;;;;;;6207755;23;20433;-77
2022/11/14 00:10:58;;;;;;;5.13;4.22;;;;;;;;;;6205745;23;20087;-77
2022/11/14 00:13:24;;;;;;;4.28;3.70;;;;;;;;;;6204478;23;20005;-77
2022/11/14 00:15:55;;;;;;;8.80;4.32;;;;;;;;;;6181481;23;20005;-73
2022/11/14 00:18:21;;;;;;;7.57;4.10;;;;;;;;;;6176828;23;20005;-77
2022/11/14 00:20:48;;;;;;;5.07;3.80;;;;;;;;;;6208115;23;20030;-77
2022/11/14 00:23:14;;;;;;;4.05;3.67;;;;;;;;;;6207961;23;20520;-77
2022/11/14 00:25:43;;;;;;;4.90;3.85;;;;;;;;;;6203782;23;20001;-78
2022/11/14 00:28:09;;;;;;;5.25;4.30;;;;;;;;;;6204666;23;20009;-78
2022/11/14 00:30:35;;;;;;;6.43;4.10;;;;;;;;;;6206711;23;20448;-76
2022/11/14 00:33:01;;;;;;;4.72;3.80;;;;;;;;;;6207059;23;20313;-76
2022/11/14 00:35:27;;;;;;;5.10;3.80;;;;;;;;;;6175375;23;20052;-77
2022/11/14 00:37:53;;;;;;;4.68;4.13;;;;;;;;;;6175215;23;20019;-77
2022/11/14 00:40:20;;;;;;;5.72;4.00;;;;;;;;;;6177485;23;20024;-77
2022/11/14 00:42:46;;;;;;;6.82;4.47;;;;;;;;;;6175524;23;20033;-75
2022/11/14 00:45:12;;;;;;;4.40;3.78;;;;;;;;;;6175440;23;20002;-75
2022/11/14 00:47:38;;;;;;;6.53;3.83;;;;;;;;;;6177430;23;20016;-76
2022/11/14 00:50:04;;;;;;;4.47;4.07;;;;;;;;;;6177802;23;20016;-74
2022/11/14 00:52:31;;;;;;;5.22;4.13;;;;;;;;;;6177934;23;20101;-77
2022/11/14 00:54:57;;;;;;;8.27;4.55;;;;;;;;;;6175396;23;20452;-77
2022/11/14 00:57:23;;;;;;;5.95;4.57;;;;;;;;;;6175519;23;20016;-78
2022/11/14 00:59:49;;;;;;;7.50;4.43;;;;;;;;;;6177413;23;20016;-77
2022/11/14 01:02:15;;;;;;;6.25;4.93;;;;;;;;;;6176120;23;20087;-76
2022/11/14 01:04:41;;;;;;;5.25;4.72;;;;;;;;;;6177435;23;20001;-77
2022/11/14 01:07:07;;;;;;;7.35;4.70;;;;;;;;;;6177291;23;20082;-76
2022/11/14 01:09:33;;;;;;;5.35;4.85;;;;;;;;;;6177860;23;20005;-76
2022/11/14 01:11:59;;;;;;;5.15;4.50;;;;;;;;;;6177737;23;20377;-74
2022/11/14 01:14:26;;;;;;;5.70;4.65;;;;;;;;;;6177309;23;20067;-75
2022/11/14 01:16:52;;;;;;;8.63;5.28;;;;;;;;;;6175627;23;20012;-76
2022/11/14 01:19:18;;;;;;;6.07;5.18;;;;;;;;;;6177501;23;20177;-77
2022/11/14 01:21:44;;;;;;;7.57;5.15;;;;;;;;;;6177566;23;20019;-76
2022/11/14 01:24:10;;;;;;;7.40;4.88;;;;;;;;;;6177247;23;20009;-77
2022/11/14 01:26:36;;;;;;;6.95;5.53;;;;;;;;;;6175989;23;20008;-77
2022/11/14 01:29:02;;;;;;;7.80;4.95;;;;;;;;;;6177046;23;20016;-76
2022/11/14 01:31:28;;;;;;;6.43;5.50;;;;;;;;;;6177239;23;20045;-76
2022/11/14 01:33:55;;;;;;;7.13;5.10;;;;;;;;;;6177537;23;20005;-76
2022/11/14 01:36:21;;;;;;;8.38;4.75;;;;;;;;;;6199388;23;20019;-77
2022/11/14 01:38:51;;;;;;;7.97;5.25;;;;;;;;;;6205493;23;20004;-77
2022/11/14 01:41:17;;;;;;;7.15;5.28;;;;;;;;;;6207133;23;20070;-74
2022/11/14 01:43:43;;;;;;;5.93;5.32;;;;;;;;;;6207068;23;20153;-77
2022/11/14 01:46:14;;;;;;;7.00;5.15;;;;;;;;;;6206873;23;20041;-77
2022/11/14 01:48:46;;;;;;;7.95;5.35;;;;;;;;;;6206658;23;20001;-75
2022/11/14 01:51:33;;;;;;;5.70;5.20;;;;;;;;;;6205470;23;20421;-77
2022/11/14 01:54:05;;;;;;;6.82;4.90;;;;;;;;;;6206502;23;20016;-76
2022/11/14 01:56:34;;;;;;;7.13;5.80;;;;;;;;;;6204737;23;20005;-74
2022/11/14 01:59:06;;;;;;;6.97;4.80;;;;;;;;;;6175231;23;20008;-74
2022/11/14 02:01:34;;;;;;;5.97;5.35;;;;;;;;;;6203337;23;20009;-75
2022/11/14 02:04:01;;;;;;;6.47;4.97;;;;;;;;;;6180067;23;20008;-75
2022/11/14 02:06:29;;;;;;;9.75;4.93;;;;;;;;;;6207156;23;20001;-74
2022/11/14 02:08:56;;;;;;;6.60;5.68;;;;;;;;;;6207246;23;20012;-75
2022/11/14 02:11:22;;;;;;;7.15;5.28;;;;;;;;;;6205045;23;20091;-75
2022/11/14 02:13:48;;;;;;;7.57;4.97;;;;;;;;;;6206577;23;20503;-74
2022/11/14 02:16:15;;;;;;;5.63;4.80;;;;;;;;;;6206715;23;20019;-76
2022/11/14 02:18:41;;;;;;;6.65;5.18;;;;;;;;;;6207160;23;20052;-75
2022/11/14 02:21:07;;;;;;;6.55;5.50;;;;;;;;;;6205125;23;20040;-75
2022/11/14 02:23:33;;;;;;;8.07;4.90;;;;;;;;;;6180671;23;20063;-76
2022/11/14 02:25:59;;;;;;;6.35;5.10;;;;;;;;;;6207111;23;20012;-76
2022/11/14 02:28:26;;;;;;;7.65;5.35;;;;;;;;;;6206848;23;20004;-75
2022/11/14 02:30:52;;;;;;;7.90;5.35;;;;;;;;;;6180359;23;20024;-75
2022/11/14 02:33:20;;;;;;;6.07;5.28;;;;;;;;;;6178301;23;20013;-76
2022/11/14 02:35:47;;;;;;;8.00;5.63;;;;;;;;;;6206600;23;20032;-76
2022/11/14 02:38:13;;;;;;;8.18;5.38;;;;;;;;;;6180853;23;20059;-75
2022/11/14 02:40:39;;;;;;;8.18;5.18;;;;;;;;;;6207046;23;20372;-75
2022/11/14 02:43:05;;;;;;;5.35;4.85;;;;;;;;;;6207345;23;20008;-75
2022/11/14 02:45:31;;;;;;;6.80;5.10;;;;;;;;;;6178289;23;20464;-76
2022/11/14 02:47:57;;;;;;;6.47;5.78;;;;;;;;;;6206613;23;20005;-74
2022/11/14 02:50:23;;;;;;;5.85;5.28;;;;;;;;;;6206701;23;20001;-76
2022/11/14 02:52:50;;;;;;;10.45;5.75;;;;;;;;;;6206723;23;20019;-76
2022/11/14 02:55:17;;;;;;;7.10;5.68;;;;;;;;;;6204847;23;20445;-75
2022/11/14 02:57:43;;;;;;;7.85;6.43;;;;;;;;;;6206727;23;20012;-74
2022/11/14 03:00:09;;;;;;;9.20;5.68;;;;;;;;;;6207249;23;20473;-75
2022/11/14 03:02:35;;;;;;;8.13;5.82;;;;;;;;;;6206744;23;20031;-75
2022/11/14 03:05:01;;;;;;;9.32;6.15;;;;;;;;;;6204612;23;20000;-74
2022/11/14 03:07:27;;;;;;;7.50;5.80;;;;;;;;;;6206731;23;20011;-76
2022/11/14 03:09:54;;;;;;;6.72;6.10;;;;;;;;;;6207094;23;20000;-74
2022/11/14 03:12:20;;;;;;;7.53;5.97;;;;;;;;;;6208202;23;20008;-75
2022/11/14 03:14:46;;;;;;;8.18;5.85;;;;;;;;;;6208673;23;20056;-74
2022/11/14 03:17:12;;;;;;;8.43;5.95;;;;;;;;;;6208576;23;20365;-74
2022/11/14 03:19:38;;;;;;;8.23;5.43;;;;;;;;;;6206736;23;20456;-74
2022/11/14 03:22:05;;;;;;;8.25;5.93;;;;;;;;;;6198332;23;20019;-75
2022/11/14 03:24:31;;;;;;;8.20;5.68;;;;;;;;;;6208305;23;20000;-73
2022/11/14 03:26:57;;;;;;;11.95;5.47;;;;;;;;;;6208317;23;20084;-76
2022/11/14 03:29:23;;;;;;;8.18;5.70;;;;;;;;;;6208674;23;20047;-75
2022/11/14 03:31:49;;;;;;;7.35;5.43;;;;;;;;;;6206485;23;20005;-75
2022/11/14 03:34:15;;;;;;;9.88;5.65;;;;;;;;;;6208543;23;20066;-75
2022/11/14 03:36:41;;;;;;;8.45;5.13;;;;;;;;;;6181521;23;20442;-76
2022/11/14 03:39:08;;;;;;;6.85;4.90;;;;;;;;;;6208310;23;19997;-73
2022/11/14 03:41:34;;;;;;;9.60;5.65;;;;;;;;;;6208434;23;20004;-74
2022/11/14 03:44:00;;;;;;;5.38;4.20;;;;;;;;;;6206384;23;20079;-75
2022/11/14 03:46:26;;;;;;;8.05;4.72;;;;;;;;;;6208528;23;20005;-75
2022/11/14 03:48:52;;;;;;;7.10;4.70;;;;;;;;;;6208563;23;20005;-75
2022/11/14 03:51:18;;;;;;;5.72;4.63;;;;;;;;;;6207999;23;20540;-74
2022/11/14 03:53:44;;;;;;;5.57;4.82;;;;;;;;;;6208465;23;20007;-75
2022/11/14 03:56:11;;;;;;;7.20;5.40;;;;;;;;;;6206423;23;20005;-74
2022/11/14 03:58:37;;;;;;;7.53;4.47;;;;;;;;;;6208087;23;20032;-75
2022/11/14 04:01:03;;;;;;;7.40;4.70;;;;;;;;;;6208198;23;20005;-76
2022/11/14 04:03:29;;;;;;;6.80;4.43;;;;;;;;;;6208632;23;20001;-75
2022/11/14 04:05:55;;;;;;;6.47;4.20;;;;;;;;;;6206436;23;20054;-75
2022/11/14 04:08:21;;;;;;;6.03;4.38;;;;;;;;;;6207835;23;20481;-74
2022/11/14 04:10:48;;;;;;;5.13;4.38;;;;;;;;;;6208216;23;20007;-75
2022/11/14 04:13:14;;;;;;;12.13;4.53;;;;;;;;;;6207987;23;19997;-77
2022/11/14 04:15:40;;;;;;;7.38;4.30;;;;;;;;;;6207180;23;20000;-75
2022/11/14 04:18:06;;;;;;;7.00;4.57;;;;;;;;;;6200671;23;20016;-75
2022/11/14 04:20:32;;;;;;;5.32;4.40;;;;;;;;;;6202295;23;20004;-75
2022/11/14 04:22:59;;;;;;;6.93;4.75;;;;;;;;;;6201740;23;20071;-75
2022/11/14 04:25:25;;;;;;;6.82;4.82;;;;;;;;;;6175169;23;20008;-75
2022/11/14 04:27:51;;;;;;;6.70;4.47;;;;;;;;;;6201834;23;20480;-75
2022/11/14 04:30:17;;;;;;;7.30;4.25;;;;;;;;;;6200486;23;20001;-75
2022/11/14 04:32:48;;;;;;;8.85;4.90;;;;;;;;;;6202233;23;20154;-76
2022/11/14 04:35:14;;;;;;;6.30;4.40;;;;;;;;;;6201423;23;20496;-76
2022/11/14 04:37:40;;;;;;;6.60;4.53;;;;;;;;;;6201668;23;20012;-75
2022/11/14 04:40:07;;;;;;;6.68;4.20;;;;;;;;;;6200067;23;20034;-76
2022/11/14 04:42:33;;;;;;;5.20;3.95;;;;;;;;;;6201687;23;20405;-75
2022/11/14 04:44:59;;;;;;;10.18;4.32;;;;;;;;;;6201193;23;20007;-75
2022/11/14 04:47:25;;;;;;;9.95;4.70;;;;;;;;;;6201766;23;20504;-74
2022/11/14 04:49:51;;;;;;;9.00;4.60;;;;;;;;;;6202014;23;20003;-74
2022/11/14 04:52:17;;;;;;;4.75;4.00;;;;;;;;;;6199780;23;20012;-74
2022/11/14 04:54:43;;;;;;;7.78;4.00;;;;;;;;;;6201341;23;20000;-75
2022/11/14 04:57:09;;;;;;;9.32;4.32;;;;;;;;;;6201996;23;20013;-75
2022/11/14 04:59:35;;;;;;;5.53;4.05;;;;;;;;;;6201631;23;20054;-75
2022/11/14 05:02:02;;;;;;;7.65;4.47;;;;;;;;;;6201516;23;20057;-74
2022/11/14 05:04:28;;;;;;;7.28;4.18;;;;;;;;;;6199507;23;19996;-75
2022/11/14 05:06:54;;;;;;;10.25;4.15;;;;;;;;;;6201620;23;20087;-77
2022/11/14 05:09:20;;;;;;;5.25;4.28;;;;;;;;;;6201878;23;20001;-77
2022/11/14 05:11:46;;;;;;;5.60;4.40;;;;;;;;;;6201787;23;20015;-75
2022/11/14 05:14:12;;;;;;;6.88;4.57;;;;;;;;;;6199551;23;20079;-77
2022/11/14 05:16:38;;;;;;;9.02;4.20;;;;;;;;;;6201108;23;20468;-77
2022/11/14 05:19:04;;;;;;;8.70;4.40;;;;;;;;;;6201742;23;20004;-77
2022/11/14 05:21:31;;;;;;;7.55;4.30;;;;;;;;;;6200496;23;20832;-77
2022/11/14 05:23:57;;;;;;;9.02;4.40;;;;;;;;;;6201242;23;20000;-77
2022/11/14 05:26:23;;;;;;;9.25;4.20;;;;;;;;;;6201784;23;20060;-77
2022/11/14 05:28:49;;;;;;;5.35;3.97;;;;;;;;;;6201396;23;20009;-77
2022/11/14 05:31:18;;;;;;;6.78;4.50;;;;;;;;;;6201628;23;20092;-76
2022/11/14 05:33:47;;;;;;;9.05;4.32;;;;;;;;;;6199832;23;20129;-78
2022/11/14 05:36:14;;;;;;;5.75;4.50;;;;;;;;;;6201057;23;20020;-78
2022/11/14 05:38:40;;;;;;;10.02;4.70;;;;;;;;;;6201461;23;20436;-75
2022/11/14 05:41:11;;;;;;;5.97;4.30;;;;;;;;;;6201030;23;19996;-76
2022/11/14 05:43:37;;;;;;;8.52;4.78;;;;;;;;;;6201121;23;20486;-77
2022/11/14 05:46:05;;;;;;;7.20;4.07;;;;;;;;;;6199232;23;20000;-77
2022/11/14 05:48:31;;;;;;;5.38;4.28;;;;;;;;;;6201507;23;20001;-77
2022/11/14 05:50:59;;;;;;;5.45;4.15;;;;;;;;;;6202096;23;20024;-77
2022/11/14 05:53:26;;;;;;;5.90;4.25;;;;;;;;;;6201304;23;20050;-75
2022/11/14 05:55:52;;;;;;;5.25;4.40;;;;;;;;;;6200432;23;20007;-76
2022/11/14 05:58:19;;;;;;;5.22;4.15;;;;;;;;;;6201929;23;20035;-77
2022/11/14 06:00:45;;;;;;;7.25;4.70;;;;;;;;;;6199482;23;19997;-74
2022/11/14 06:03:13;;;;;;;5.70;4.50;;;;;;;;;;6174161;23;20437;-76
2022/11/14 06:05:40;;;;;;;7.22;4.38;;;;;;;;;;6200439;23;20020;-77
2022/11/14 06:08:06;;;;;;;6.05;4.20;;;;;;;;;;6201321;23;20472;-77
2022/11/14 06:10:34;;;;;;;7.40;4.63;;;;;;;;;;6199675;23;20001;-75
2022/11/14 06:13:00;;;;;;;6.35;4.47;;;;;;;;;;6200838;23;20586;-77
2022/11/14 06:15:26;;;;;;;6.57;4.72;;;;;;;;;;6200481;23;20196;-77
2022/11/14 06:17:56;;;;;;;6.07;4.20;;;;;;;;;;6199883;23;20023;-74
2022/11/14 06:20:22;;;;;;;4.43;4.00;;;;;;;;;;6201245;23;20004;-76
2022/11/14 06:22:48;;;;;;;6.30;4.10;;;;;;;;;;6201133;23;20023;-77
2022/11/14 06:25:15;;;;;;;7.25;4.35;;;;;;;;;;6201818;23;20059;-78
2022/11/14 06:27:41;;;;;;;10.95;4.43;;;;;;;;;;6201291;23;20001;-78
2022/11/14 06:30:07;;;;;;;6.32;4.25;;;;;;;;;;6199826;23;20051;-71
2022/11/14 06:32:33;;;;;;;8.48;4.97;;;;;;;;;;6200786;23;20216;-76
2022/11/14 06:34:59;;;;;;;7.80;4.65;;;;;;;;;;6200787;23;20190;-75
2022/11/14 06:37:26;;;;;;;8.02;4.10;;;;;;;;;;6201046;23;20111;-75
2022/11/14 06:39:52;;;;;;;8.60;4.70;;;;;;;;;;6200985;23;20007;-75
2022/11/14 06:42:18;;;;;;;5.63;4.90;;;;;;;;;;6199116;23;20325;-75
2022/11/14 06:44:44;;;;;;;6.25;4.85;;;;;;;;;;6201328;23;20003;-75
2022/11/14 06:47:10;;;;;;;8.85;4.93;;;;;;;;;;6202391;23;20008;-74
2022/11/14 06:49:36;;;;;;;7.93;4.75;;;;;;;;;;6202569;23;20201;-76
2022/11/14 06:52:02;;;;;;;6.97;4.50;;;;;;;;;;6201229;23;20005;-75
2022/11/14 06:54:28;;;;;;;6.63;5.22;;;;;;;;;;6202196;23;20015;-74
2022/11/14 06:56:54;;;;;;;9.27;4.95;;;;;;;;;;6202656;23;20005;-75
2022/11/14 06:59:21;;;;;;;9.40;5.53;;;;;;;;;;6203310;23;20007;-74
2022/11/14 07:01:47;;;;;;;7.45;5.60;;;;;;;;;;6202877;23;20015;-72
2022/11/14 07:04:13;;;;;;;10.98;6.10;;;;;;;;;;6200347;23;20023;-74
2022/11/14 07:06:39;;;;;;;11.02;6.82;;;;;;;;;;6202919;23;20333;-73
2022/11/14 07:09:05;;;;;;;9.82;7.03;;;;;;;;;;6202554;23;20008;-72
2022/11/14 07:11:32;;;;;;;13.18;7.32;;;;;;;;;;6202802;23;20001;-76
2022/11/14 07:13:59;;;;;;;15.07;8.57;;;;;;;;;;6201793;23;20005;-76
2022/11/14 07:16:34;;;;;;;18.17;9.32;;;;;;;;;;6199893;23;20165;-76
2022/11/14 07:19:00;;;;;;;21.00;10.48;;;;;;;;;;6202167;23;20005;-76
2022/11/14 07:21:27;;;;;;;19.75;12.05;;;;;;;;;;6202132;23;20453;-74
2022/11/14 07:23:53;;;;;;;27.30;12.38;;;;;;;;;;6202722;23;20004;-73
2022/11/14 07:26:20;;;;;;;21.05;11.65;;;;;;;;;;6199908;23;20322;-75
2022/11/14 07:28:46;;;;;;;21.75;11.07;;;;;;;;;;6201721;23;20330;-77
2022/11/14 07:31:14;;;;;;;15.98;8.40;;;;;;;;;;6202289;23;20027;-77
2022/11/14 07:33:40;;;;;;;15.45;7.32;;;;;;;;;;6202130;23;20004;-76
2022/11/14 07:36:07;;;;;;;10.50;6.07;;;;;;;;;;6201012;23;20135;-74
2022/11/14 07:38:34;;;;;;;12.18;6.03;;;;;;;;;;6200848;23;20015;-74
2022/11/14 07:41:01;;;;;;;7.50;6.05;;;;;;;;;;6201858;23;20524;-77
2022/11/14 07:43:28;;;;;;;10.68;5.72;;;;;;;;;;6201999;23;20352;-75
2022/11/14 07:45:58;;;;;;;9.32;5.55;;;;;;;;;;6201535;23;20709;-77
2022/11/14 07:48:24;;;;;;;10.13;5.88;;;;;;;;;;6200512;23;20051;-76
2022/11/14 07:50:51;;;;;;;10.27;6.50;;;;;;;;;;6202105;23;20587;-77
2022/11/14 07:53:17;;;;;;;13.52;6.75;;;;;;;;;;6202638;23;20015;-75
2022/11/14 07:55:43;;;;;;;7.43;6.07;;;;;;;;;;6202137;23;20009;-77
2022/11/14 07:58:09;;;;;;;12.88;7.88;;;;;;;;;;6201446;23;20590;-76
2022/11/14 08:00:36;;;;;;;12.75;8.10;;;;;;;;;;6199887;23;19996;-77
2022/11/14 08:03:02;;;;;;;12.40;7.82;;;;;;;;;;6201881;23;20000;-77
2022/11/14 08:05:28;;;;;;;12.23;7.63;;;;;;;;;;6201725;23;20005;-76
2022/11/14 08:07:54;;;;;;;15.02;7.18;;;;;;;;;;6199765;23;20353;-76
2022/11/14 08:10:20;;;;;;;11.27;7.05;;;;;;;;;;6201574;23;19992;-77
2022/11/14 08:12:46;;;;;;;12.77;9.35;;;;;;;;;;6202275;23;20008;-76
2022/11/14 08:15:13;;;;;;;19.95;11.20;;;;;;;;;;6199861;23;20088;-77
2022/11/14 08:17:40;;;;;;;27.15;15.90;;;;;;;;;;6202100;23;20372;-78
2022/11/14 08:20:07;;;;;;;22.98;15.55;;;;;;;;;;6201405;23;20325;-76
2022/11/14 08:22:33;;;;;;;27.95;16.25;;;;;;;;;;6201855;23;20008;-76
2022/11/14 08:24:59;;;;;;;27.05;16.33;;;;;;;;;;6201054;23;20005;-77
2022/11/14 08:27:25;;;;;;;18.60;11.85;;;;;;;;;;6201859;23;20068;-77
2022/11/14 08:29:51;;;;;;;15.15;9.82;;;;;;;;;;6199172;23;19993;-78
2022/11/14 08:32:18;;;;;;;14.35;8.80;;;;;;;;;;6175646;23;20620;-77
2022/11/14 08:34:44;;;;;;;11.95;7.45;;;;;;;;;;6201401;23;20059;-77
2022/11/14 08:37:10;;;;;;;9.85;6.00;;;;;;;;;;6201803;23;20345;-78
2022/11/14 08:39:37;;;;;;;11.90;5.28;;;;;;;;;;6201612;23;20019;-78
2022/11/14 08:42:03;;;;;;;8.85;5.47;;;;;;;;;;6201867;23;20021;-77
2022/11/14 08:44:29;;;;;;;7.78;5.07;;;;;;;;;;6200188;23;20001;-77
2022/11/14 08:46:56;;;;;;;7.63;4.70;;;;;;;;;;6201279;23;20008;-76
2022/11/14 08:49:22;;;;;;;5.70;4.18;;;;;;;;;;6201239;23;20075;-77
2022/11/14 08:51:48;;;;;;;4.82;3.53;;;;;;;;;;6201816;23;20000;-77
2022/11/14 08:54:14;;;;;;;6.72;3.63;;;;;;;;;;6199753;23;20350;-75
2022/11/14 08:56:40;;;;;;;4.57;3.60;;;;;;;;;;6201017;23;20071;-76
2022/11/14 08:59:06;;;;;;;5.13;3.75;;;;;;;;;;6201322;23;20056;-77
2022/11/14 09:01:33;;;;;;;8.38;3.65;;;;;;;;;;6199863;23;20046;-77
2022/11/14 09:03:59;;;;;;;7.28;4.20;;;;;;;;;;6201573;23;20008;-77
2022/11/14 09:06:26;;;;;;;5.00;3.47;;;;;;;;;;6201288;23;20358;-77
2022/11/14 09:08:52;;;;;;;6.82;3.92;;;;;;;;;;6201685;23;20008;-76
2022/11/14 09:11:18;;;;;;;6.50;3.58;;;;;;;;;;6201252;23;20406;-77
2022/11/14 09:13:44;;;;;;;4.32;3.58;;;;;;;;;;6199194;23;20005;-76
2022/11/14 09:16:10;;;;;;;4.78;3.50;;;;;;;;;;6200900;23;20000;-76
2022/11/14 09:18:36;;;;;;;6.85;3.40;;;;;;;;;;6201675;23;20015;-71
2022/11/14 09:21:06;;;;;;;6.20;4.53;;;;;;;;;;6201586;23;20464;-77
2022/11/14 09:23:33;;;;;;;5.95;3.38;;;;;;;;;;6173327;23;20004;-77
2022/11/14 09:26:03;;;;;;;7.72;3.92;;;;;;;;;;6201297;23;20428;-77
2022/11/14 09:28:29;;;;;;;6.20;3.92;;;;;;;;;;6200374;23;20007;-76
2022/11/14 09:30:59;;;;;;;8.18;3.45;;;;;;;;;;6201415;23;20004;-77
2022/11/14 09:33:25;;;;;;;7.43;3.78;;;;;;;;;;6198750;23;20032;-75
2022/11/14 09:36:18;;;;;;;4.88;3.42;;;;;;;;;;6200712;23;20043;-78
2022/11/14 09:38:45;;;;;;;6.03;3.78;;;;;;;;;;6196162;23;20017;-77
2022/11/14 09:41:24;;;;;;;6.85;3.20;;;;;;;;;;6201983;23;20067;-78
2022/11/14 09:43:53;;;;;;;7.57;3.90;;;;;;;;;;6199433;23;20016;-77
2022/11/14 09:46:46;;;;;;;5.57;3.40;;;;;;;;;;6200718;23;20069;-75
2022/11/14 09:49:36;;;;;;;6.60;3.40;;;;;;;;;;6169314;23;20325;-77
2022/11/14 09:52:13;;;;;;;6.50;3.42;;;;;;;;;;6183478;23;20240;-78
2022/11/14 09:54:44;;;;;;;5.45;3.55;;;;;;;;;;6200470;23;20439;-73
2022/11/14 09:57:14;;;;;;;6.95;3.47;;;;;;;;;;6200301;23;20443;-76
2022/11/14 09:59:40;;;;;;;7.47;3.50;;;;;;;;;;6200910;23;20402;-76
2022/11/14 10:02:24;;;;;;;5.22;3.45;;;;;;;;;;6200994;23;20005;-76
2022/11/14 10:05:09;;;;;;;5.80;3.22;;;;;;;;;;6198681;23;20005;-76
2022/11/14 10:07:52;;;;;;;8.45;3.80;;;;;;;;;;6200600;23;20472;-76
2022/11/14 10:10:18;;;;;;;5.97;3.33;;;;;;;;;;6200672;23;20015;-76
2022/11/14 10:12:59;;;;;;;5.95;3.35;;;;;;;;;;6196455;23;20414;-76
2022/11/14 10:15:34;;;;;;;5.45;3.72;;;;;;;;;;6171184;23;19996;-77
2022/11/14 10:18:33;;;;;;;5.47;3.90;;;;;;;;;;6204544;23;20047;-78
2022/11/14 10:21:11;;;;;;;7.70;3.67;;;;;;;;;;6175295;23;20059;-77
2022/11/14 10:23:46;;;;;;;5.68;3.60;;;;;;;;;;6203119;23;20040;-78
2022/11/14 10:26:23;;;;;;;5.88;3.55;;;;;;;;;;6175425;23;20004;-76
2022/11/14 10:29:08;;;;;;;8.93;4.10;;;;;;;;;;6201127;23;20271;-77
2022/11/14 10:31:34;;;;;;;6.50;3.20;;;;;;;;;;6173413;23;20036;-76
2022/11/14 10:34:09;;;;;;;7.28;3.10;;;;;;;;;;6201015;23;20011;-77
2022/11/14 10:36:54;;;;;;;5.95;3.65;;;;;;;;;;6173544;23;20374;-85
2022/11/14 10:39:36;;;;;;;8.38;3.80;;;;;;;;;;6173530;23;20005;-82
2022/11/14 10:42:10;;;;;;;5.93;3.75;;;;;;;;;;6173734;23;20009;-83
2022/11/14 10:44:46;;;;;;;7.03;3.35;;;;;;;;;;6198819;23;20000;-82
2022/11/14 10:47:14;;;;;;;6.65;3.25;;;;;;;;;;6199702;23;20011;-81
2022/11/14 10:49:40;;;;;;;4.53;3.22;;;;;;;;;;6200491;23;20012;-80
2022/11/14 10:52:12;;;;;;;9.27;3.85;;;;;;;;;;6200696;23;20413;-84
2022/11/14 10:54:44;;;;;;;4.35;3.13;;;;;;;;;;6171818;23;20096;-81
2022/11/14 10:57:17;;;;;;;7.57;3.30;;;;;;;;;;6199594;23;20453;-83
2022/11/14 10:59:43;;;;;;;9.68;3.67;;;;;;;;;;6200281;23;20000;-83
2022/11/14 11:02:10;;;;;;;6.78;3.40;;;;;;;;;;6173415;23;20609;-83
2022/11/14 11:04:37;;;;;;;6.88;3.38;;;;;;;;;;6198974;23;20012;-82
2022/11/14 11:11:28;;;;;;;4.93;2.90;;;;;;;;;;6200757;23;20080;-83
2022/11/14 11:12:46;;;;;;;12.13;3.72;;;;;;;;;;6200670;23;20019;-84
2022/11/14 11:15:15;;;;;;;5.50;3.15;;;;;;;;;;6200086;23;20008;-83
2022/11/14 11:17:55;;;;;;;4.97;3.05;;;;;;;;;;6199820;23;20019;-83
2022/11/14 11:20:24;;;;;;;5.78;3.30;;;;;;;;;;6200720;23;20025;-81
2022/11/14 11:23:01;;;;;;;4.57;3.00;;;;;;;;;;6198856;23;20069;-83
2022/11/14 11:25:29;;;;;;;3.08;2.47;;;;;;;;;;6199354;23;20004;-83
2022/11/14 11:28:06;;;;;;;8.73;3.22;;;;;;;;;;6199994;23;20008;-84
2022/11/14 11:30:32;;;;;;;4.75;2.60;;;;;;;;;;6200614;23;20066;-83
2022/11/14 11:33:14;;;;;;;3.20;2.58;;;;;;;;;;6174912;23;20020;-82
2022/11/14 11:35:41;;;;;;;2.63;2.40;;;;;;;;;;6201691;23;20107;-80
2022/11/14 11:38:08;;;;;;;5.88;3.13;;;;;;;;;;6200728;23;20103;-85
2022/11/14 11:40:34;;;;;;;5.53;2.80;;;;;;;;;;6202275;23;20007;-85
2022/11/14 11:43:03;;;;;;;6.45;2.70;;;;;;;;;;6202090;23;20008;-82
2022/11/14 11:45:29;;;;;;;6.45;2.88;;;;;;;;;;6201458;23;20001;-83
2022/11/14 11:48:13;;;;;;;4.03;2.80;;;;;;;;;;6202075;23;20015;-80
2022/11/14 11:50:39;;;;;;;3.83;2.60;;;;;;;;;;6199899;23;20001;-82
2022/11/14 11:53:15;;;;;;;5.15;2.35;;;;;;;;;;6175628;23;20001;-78
2022/11/14 11:55:46;;;;;;;3.33;2.30;;;;;;;;;;6201292;23;19996;-82
2022/11/14 11:58:32;;;;;;;4.90;2.15;;;;;;;;;;6201761;23;20091;-81
2022/11/14 12:00:59;;;;;;;3.17;2.03;;;;;;;;;;6201445;23;20079;-81
2022/11/14 12:03:25;;;;;;;4.03;2.25;;;;;;;;;;6202356;23;20013;-82
2022/11/14 12:06:10;;;;;;;3.45;2.22;;;;;;;;;;6199687;23;20024;-80
2022/11/14 12:08:48;;;;;;;5.22;2.35;;;;;;;;;;6207360;23;20027;-77
2022/11/14 12:11:16;;;;;;;5.43;2.70;;;;;;;;;;6206308;23;20032;-81
2022/11/14 12:13:58;;;;;;;8.50;2.60;;;;;;;;;;6203026;23;19996;-80
2022/11/14 12:16:36;;;;;;;3.08;2.45;;;;;;;;;;6201566;23;20159;-81
2022/11/14 12:19:11;;;;;;;4.93;2.60;;;;;;;;;;6201816;23;20014;-82
2022/11/14 12:21:38;;;;;;;4.97;2.40;;;;;;;;;;6202141;23;20020;-81
2022/11/14 12:24:07;;;;;;;4.63;2.70;;;;;;;;;;6202803;23;20082;-81
2022/11/14 12:26:43;;;;;;;6.07;2.55;;;;;;;;;;6200617;23;19999;-80
2022/11/14 12:29:12;;;;;;;5.55;2.58;;;;;;;;;;6201428;23;20004;-83
2022/11/14 12:31:39;;;;;;;4.72;2.22;;;;;;;;;;6202331;23;20001;-78
2022/11/14 12:34:15;;;;;;;3.20;2.22;;;;;;;;;;6176000;23;20012;-81
2022/11/14 12:36:42;;;;;;;7.22;2.60;;;;;;;;;;6199748;23;20398;-81
2022/11/14 12:39:20;;;;;;;3.38;2.45;;;;;;;;;;6202187;23;20417;-84
2022/11/14 12:41:46;;;;;;;4.30;2.25;;;;;;;;;;6201508;23;20001;-82
2022/11/14 12:44:31;;;;;;;5.15;2.70;;;;;;;;;;6201670;23;20081;-82
2022/11/14 12:47:02;;;;;;;3.47;2.35;;;;;;;;;;6201275;23;20058;-82
2022/11/14 12:49:47;;;;;;;3.17;2.05;;;;;;;;;;6202524;23;20463;-83
2022/11/14 12:52:32;;;;;;;5.57;2.22;;;;;;;;;;6200031;23;20441;-83
2022/11/14 12:54:58;;;;;;;2.42;1.92;;;;;;;;;;6201335;23;20075;-84
2022/11/14 12:57:46;;;;;;;4.10;2.17;;;;;;;;;;6174848;23;20044;-83
2022/11/14 13:00:13;;;;;;;3.13;2.15;;;;;;;;;;6199961;23;20001;-83
2022/11/14 13:02:52;;;;;;;2.78;2.10;;;;;;;;;;6201755;23;20038;-83
2022/11/14 13:05:35;;;;;;;4.63;2.30;;;;;;;;;;6201357;23;20001;-83
2022/11/14 13:08:02;;;;;;;3.88;2.28;;;;;;;;;;6201432;23;20000;-84
2022/11/14 13:10:31;;;;;;;3.80;1.88;;;;;;;;;;6201356;23;20044;-84
2022/11/14 13:24:09;;;;;;;3.05;1.92;;;;;;;;;;6201642;23;20472;-84
2022/11/14 13:26:42;;;;;;;2.85;1.83;;;;;;;;;;6201492;23;20076;-84
2022/11/14 13:29:28;;;;;;;5.38;2.30;;;;;;;;;;6201186;23;20099;-84
2022/11/14 13:31:54;;;;;;;4.53;1.88;;;;;;;;;;6198950;23;20001;-84
2022/11/14 13:34:30;;;;;;;6.15;2.22;;;;;;;;;;6175321;23;20091;-84
2022/11/14 13:37:02;;;;;;;3.40;1.70;;;;;;;;;;6200809;23;20021;-84
2022/11/14 13:39:31;;;;;;;5.40;2.10;;;;;;;;;;6201085;23;20013;-84
2022/11/14 13:42:16;;;;;;;4.30;1.85;;;;;;;;;;6200396;23;20008;-84
2022/11/14 13:44:51;;;;;;;2.38;1.70;;;;;;;;;;6200643;23;20575;-83
2022/11/14 13:47:24;;;;;;;2.00;1.70;;;;;;;;;;6200952;23;20702;-84
2022/11/14 13:49:58;;;;;;;3.50;2.20;;;;;;;;;;6201314;23;20000;-83
2022/11/14 13:52:29;;;;;;;2.53;1.50;;;;;;;;;;6200790;23;20068;-83
2022/11/14 13:54:55;;;;;;;3.15;1.63;;;;;;;;;;6199155;23;20007;-87
2022/11/14 13:57:21;;;;;;;4.28;1.80;;;;;;;;;;6199527;23;20012;-85
2022/11/14 13:59:47;;;;;;;5.68;1.63;;;;;;;;;;6200216;23;20007;-74
2022/11/14 14:02:32;;;;;;;3.47;1.80;;;;;;;;;;6200753;23;20051;-85
2022/11/14 14:05:07;;;;;;;3.10;1.60;;;;;;;;;;6200902;23;20466;-85
2022/11/14 14:07:52;;;;;;;5.45;2.03;;;;;;;;;;6201160;23;20023;-83
2022/11/14 14:10:30;;;;;;;4.85;2.30;;;;;;;;;;6172460;23;20012;-83
2022/11/14 14:13:00;;;;;;;4.28;2.25;;;;;;;;;;6200818;23;20009;-81
2022/11/14 14:15:44;;;;;;;6.25;1.98;;;;;;;;;;6201198;23;20011;-83
2022/11/14 14:18:20;;;;;;;5.78;1.90;;;;;;;;;;6200195;23;20023;-85
2022/11/14 14:20:46;;;;;;;4.78;1.80;;;;;;;;;;6200534;23;20050;-85
2022/11/14 14:23:22;;;;;;;4.18;2.15;;;;;;;;;;6200730;23;20020;-86
2022/11/14 14:26:00;;;;;;;7.70;2.65;;;;;;;;;;6198724;23;20012;-85
2022/11/14 14:28:36;;;;;;;3.08;1.95;;;;;;;;;;6200586;23;20056;-86
2022/11/14 14:31:08;;;;;;;5.38;2.00;;;;;;;;;;6200580;23;20091;-86
2022/11/14 14:33:44;;;;;;;3.58;1.75;;;;;;;;;;6201182;23;20007;-83
2022/11/14 14:36:19;;;;;;;3.53;2.00;;;;;;;;;;6198020;23;20035;-81
2022/11/14 14:38:46;;;;;;;2.83;1.60;;;;;;;;;;6200905;23;20008;-85
2022/11/14 14:41:13;;;;;;;6.25;1.98;;;;;;;;;;6200695;23;20000;-84
2022/11/14 14:43:41;;;;;;;4.30;1.60;;;;;;;;;;6201072;23;20523;-84
2022/11/14 14:46:07;;;;;;;6.15;2.10;;;;;;;;;;6200615;23;20001;-75
2022/11/14 14:48:34;;;;;;;3.83;1.63;;;;;;;;;;6198760;23;19999;-85
2022/11/14 14:51:06;;;;;;;2.70;1.40;;;;;;;;;;6200804;23;20499;-84
2022/11/14 14:53:33;;;;;;;4.13;1.50;;;;;;;;;;6200654;23;20062;-84
2022/11/14 14:56:04;;;;;;;4.10;1.85;;;;;;;;;;6200210;23;20063;-84
2022/11/14 14:58:32;;;;;;;3.53;1.90;;;;;;;;;;6200602;23;20016;-83
2022/11/14 15:01:01;;;;;;;7.60;1.80;;;;;;;;;;6200814;23;20001;-83
2022/11/14 15:03:32;;;;;;;5.43;1.77;;;;;;;;;;6199371;23;20034;-83
2022/11/14 15:06:02;;;;;;;3.90;1.80;;;;;;;;;;6199771;23;20441;-77